Time;durP1;ratioP1;P1;durP2;ratioP2;P2;SDS_P1;SDS_P2;PMS_P1;PMS_P2;Temp;Humidity;BMP_temperature;BMP_pressure;BME280_temperature;BME280_humidity;BME280_pressure;Samples;Min_cycle;Max_cycle;Signal;HPM_P1;HPM_P2
2022/01/21 00:01:43;;;;;;;12.27;1.40;;;5.10;97.10;;;;;;5052074;28;20036;-75
2022/01/21 00:04:10;;;;;;;13.57;1.38;;;5.20;97.40;;;;;;5052497;28;20430;-75
2022/01/21 00:06:38;;;;;;;14.50;1.65;;;5.20;97.10;;;;;;5051882;28;20127;-75
2022/01/21 00:09:04;;;;;;;12.13;1.17;;;5.20;97.10;;;;;;5052733;28;20037;-74
2022/01/21 00:11:30;;;;;;;11.95;1.20;;;5.20;97.10;;;;;;5067086;28;20072;-75
2022/01/21 00:13:58;;;;;;;19.80;1.55;;;5.30;97.10;;;;;;5060952;28;20420;-74
2022/01/21 00:16:26;;;;;;;6.50;1.05;;;5.20;97.00;;;;;;5052094;28;20033;-75
2022/01/21 00:18:59;;;;;;;11.52;1.13;;;5.30;97.00;;;;;;5052228;28;20029;-74
2022/01/21 00:32:29;;;;;;;11.98;1.02;;;5.30;97.00;;;;;;5051587;28;20095;-75
2022/01/21 00:34:55;;;;;;;10.75;1.02;;;5.30;97.00;;;;;;5052059;28;20067;-75
2022/01/21 00:37:20;;;;;;;8.43;0.80;;;5.30;96.90;;;;;;5048652;28;20037;-74
2022/01/21 00:39:52;;;;;;;14.80;1.65;;;5.30;96.90;;;;;;5051577;28;20377;-74
2022/01/21 00:44:46;;;;;;;14.88;1.08;;;5.30;97.00;;;;;;5051212;28;20411;-74
2022/01/21 00:47:12;;;;;;;11.13;1.23;;;5.30;97.00;;;;;;5048967;28;20047;-74
2022/01/21 00:49:37;;;;;;;10.93;1.40;;;5.30;96.90;;;;;;5051713;28;20469;-74
2022/01/21 00:52:03;;;;;;;9.90;0.98;;;5.30;97.00;;;;;;5050932;28;20097;-74
2022/01/21 00:54:29;;;;;;;9.32;1.65;;;5.30;97.10;;;;;;5051831;28;20033;-74
2022/01/21 00:56:54;;;;;;;8.73;1.08;;;5.20;97.20;;;;;;5051338;28;20568;-74
2022/01/21 00:59:20;;;;;;;10.55;1.30;;;5.10;97.20;;;;;;5051968;28;20029;-74
2022/01/21 01:01:46;;;;;;;11.70;1.98;;;5.10;97.30;;;;;;5050779;28;20052;-74
2022/01/21 01:04:11;;;;;;;8.75;1.13;;;5.10;97.40;;;;;;5052257;28;20380;-75
2022/01/21 01:06:37;;;;;;;8.68;1.55;;;5.10;97.50;;;;;;5054023;28;20385;-75
2022/01/21 01:09:03;;;;;;;14.13;1.55;;;5.00;97.50;;;;;;5068260;28;20037;-74
2022/01/21 01:22:07;;;;;;;9.20;1.20;;;5.00;97.60;;;;;;5054790;28;20070;-75
2022/01/21 01:29:58;;;;;;;13.02;1.55;;;5.00;97.50;;;;;;5051964;28;20103;-74
2022/01/21 01:32:25;;;;;;;15.43;1.88;;;5.00;97.60;;;;;;5054890;28;20111;-75
2022/01/21 01:34:52;;;;;;;13.93;1.30;;;5.00;97.50;;;;;;5054856;28;20028;-74
2022/01/21 01:40:23;;;;;;;16.48;1.60;;;5.00;97.50;;;;;;5043567;28;20029;-74
2022/01/21 01:50:50;;;;;;;15.93;1.45;;;5.00;97.00;;;;;;5054279;28;20112;-75
2022/01/21 01:53:18;;;;;;;13.80;1.70;;;5.00;96.90;;;;;;5054298;28;20412;-75
2022/01/21 01:55:44;;;;;;;10.50;1.50;;;4.90;97.00;;;;;;5054315;28;20032;-76
2022/01/21 01:58:14;;;;;;;13.25;1.30;;;5.00;97.00;;;;;;5042514;28;20033;-74
2022/01/21 02:00:40;;;;;;;14.60;1.58;;;4.90;96.90;;;;;;5039987;28;20032;-75
2022/01/21 02:03:13;;;;;;;13.07;1.77;;;4.90;97.00;;;;;;5045599;28;20034;-75
2022/01/21 02:05:40;;;;;;;12.90;1.42;;;4.90;96.90;;;;;;5039379;28;20423;-75
2022/01/21 02:08:06;;;;;;;15.05;1.77;;;4.80;97.00;;;;;;5055743;28;20033;-75
2022/01/21 02:10:32;;;;;;;17.98;1.63;;;4.80;97.10;;;;;;5068105;28;20375;-75
2022/01/21 02:13:05;;;;;;;14.57;1.50;;;4.80;97.10;;;;;;5054391;28;20029;-75
2022/01/21 02:15:38;;;;;;;16.77;2.28;;;4.80;97.10;;;;;;5054000;28;20082;-75
2022/01/21 02:23:34;;;;;;;13.02;1.77;;;4.70;97.20;;;;;;5053280;28;20086;-75
2022/01/21 02:26:01;;;;;;;18.38;1.85;;;4.80;97.20;;;;;;5053646;28;20025;-75
2022/01/21 02:28:27;;;;;;;19.13;2.20;;;4.80;97.20;;;;;;5051250;28;20043;-75
2022/01/21 02:30:58;;;;;;;11.82;1.33;;;4.80;97.20;;;;;;5053662;28;20025;-75
2022/01/21 02:33:26;;;;;;;14.93;2.03;;;4.70;97.10;;;;;;5053700;28;20037;-75
2022/01/21 02:35:52;;;;;;;14.27;2.38;;;4.80;97.20;;;;;;5053820;28;20566;-75
2022/01/21 02:38:18;;;;;;;12.00;1.30;;;4.70;97.20;;;;;;5054134;28;20060;-74
2022/01/21 02:40:44;;;;;;;12.70;1.35;;;4.80;97.20;;;;;;5053668;28;20082;-75
2022/01/21 02:43:11;;;;;;;9.50;1.08;;;4.80;97.40;;;;;;5053646;28;20017;-75
2022/01/21 02:45:39;;;;;;;13.60;1.92;;;4.80;97.10;;;;;;5053137;28;20116;-75
2022/01/21 02:48:09;;;;;;;12.20;1.40;;;4.90;97.10;;;;;;5053231;28;20041;-75
2022/01/21 02:50:35;;;;;;;14.88;1.60;;;4.90;97.00;;;;;;5052411;28;20040;-75
2022/01/21 02:53:24;;;;;;;15.27;1.45;;;4.90;96.90;;;;;;5053449;28;20456;-75
2022/01/21 02:55:49;;;;;;;10.40;1.60;;;4.90;96.90;;;;;;5053349;28;20087;-75
2022/01/21 02:58:15;;;;;;;16.52;1.70;;;5.00;96.90;;;;;;5053321;28;20454;-75
2022/01/21 03:00:41;;;;;;;11.63;1.35;;;5.00;96.70;;;;;;5053534;28;20025;-74
2022/01/21 03:03:07;;;;;;;12.15;1.63;;;5.00;96.70;;;;;;5054210;28;20369;-74
2022/01/21 03:05:38;;;;;;;11.60;1.38;;;5.00;96.60;;;;;;5065008;28;20028;-73
2022/01/21 03:08:04;;;;;;;11.50;1.13;;;5.00;96.50;;;;;;5064297;28;20493;-74
2022/01/21 03:10:30;;;;;;;9.20;1.33;;;5.00;96.40;;;;;;5055224;28;20025;-74
2022/01/21 03:12:56;;;;;;;11.27;1.27;;;4.90;96.40;;;;;;5052954;28;20408;-74
2022/01/21 03:15:21;;;;;;;13.50;0.90;;;4.90;96.50;;;;;;5052994;28;20029;-74
2022/01/21 03:17:47;;;;;;;10.85;1.27;;;4.90;96.60;;;;;;5052879;28;20495;-74
2022/01/21 03:20:13;;;;;;;11.93;1.00;;;4.90;96.60;;;;;;5052467;28;20025;-74
2022/01/21 03:22:39;;;;;;;14.02;1.52;;;4.80;96.50;;;;;;5052837;28;20025;-74
2022/01/21 03:25:06;;;;;;;8.98;1.05;;;4.80;96.60;;;;;;5052766;28;20035;-74
2022/01/21 03:27:32;;;;;;;12.30;1.35;;;4.80;96.70;;;;;;5052389;28;20056;-74
2022/01/21 03:29:58;;;;;;;11.20;1.30;;;4.80;96.70;;;;;;5052450;28;20024;-73
2022/01/21 03:32:25;;;;;;;10.68;1.20;;;4.80;96.70;;;;;;5051678;28;20083;-74
2022/01/21 03:34:51;;;;;;;13.02;1.48;;;4.90;96.70;;;;;;5052847;28;20027;-74
2022/01/21 03:37:17;;;;;;;13.13;1.30;;;4.80;96.70;;;;;;5052319;28;20020;-74
2022/01/21 03:39:42;;;;;;;8.95;0.90;;;4.80;96.70;;;;;;5052065;28;20074;-74
2022/01/21 03:42:08;;;;;;;10.23;1.20;;;4.90;96.70;;;;;;5052384;28;20464;-74
2022/01/21 03:44:33;;;;;;;11.32;0.85;;;4.80;96.90;;;;;;5052487;28;20551;-74
2022/01/21 03:46:59;;;;;;;6.75;0.90;;;4.90;96.70;;;;;;5052359;28;20029;-74
2022/01/21 03:49:26;;;;;;;10.70;0.85;;;4.80;96.60;;;;;;5052113;28;20392;-74
2022/01/21 03:51:51;;;;;;;10.13;1.15;;;4.90;96.60;;;;;;5051923;28;20032;-74
2022/01/21 03:54:17;;;;;;;15.27;1.60;;;4.90;96.60;;;;;;5052847;28;20021;-74
2022/01/21 03:56:42;;;;;;;9.10;0.93;;;4.90;96.50;;;;;;5053201;28;20488;-74
2022/01/21 03:59:08;;;;;;;11.70;1.42;;;4.90;96.40;;;;;;5052093;28;20030;-74
2022/01/21 04:01:34;;;;;;;9.98;1.25;;;4.90;96.40;;;;;;5051540;28;20029;-75
2022/01/21 04:03:59;;;;;;;13.82;1.10;;;4.80;96.30;;;;;;5054132;28;20036;-75
2022/01/21 04:06:25;;;;;;;10.32;1.02;;;4.80;96.30;;;;;;5061672;28;20044;-76
2022/01/21 04:08:51;;;;;;;10.93;1.10;;;4.80;96.30;;;;;;5060147;28;20071;-75
2022/01/21 04:11:16;;;;;;;18.08;1.60;;;4.80;96.50;;;;;;5051873;28;20382;-75
2022/01/21 04:13:43;;;;;;;16.30;1.35;;;4.70;96.50;;;;;;5052112;28;20437;-76
2022/01/21 04:16:09;;;;;;;10.60;0.98;;;4.70;96.20;;;;;;5051733;28;20072;-75
2022/01/21 04:18:34;;;;;;;8.30;0.77;;;4.70;96.20;;;;;;5051868;28;20061;-75
2022/01/21 04:21:00;;;;;;;15.63;2.00;;;4.70;96.30;;;;;;5052042;28;20028;-76
2022/01/21 04:23:26;;;;;;;11.05;1.10;;;4.70;96.30;;;;;;5051822;28;20021;-76
2022/01/21 04:25:53;;;;;;;9.30;1.23;;;4.70;96.40;;;;;;5051673;28;20029;-76
2022/01/21 04:28:19;;;;;;;7.75;1.30;;;4.60;96.40;;;;;;5051946;28;20048;-76
2022/01/21 04:30:45;;;;;;;11.73;1.52;;;4.60;96.50;;;;;;5052507;28;20086;-76
2022/01/21 04:33:11;;;;;;;15.52;1.40;;;4.60;96.50;;;;;;5065310;28;20040;-76
2022/01/21 04:35:36;;;;;;;10.68;1.08;;;4.60;96.50;;;;;;5052824;28;20361;-76
2022/01/21 04:38:05;;;;;;;15.15;1.45;;;4.60;96.80;;;;;;5052876;28;20028;-76
2022/01/21 04:40:36;;;;;;;10.27;1.15;;;4.60;96.60;;;;;;5056000;28;20025;-75
2022/01/21 04:48:31;;;;;;;10.07;0.88;;;4.70;96.60;;;;;;5056720;28;20055;-76
2022/01/21 04:51:10;;;;;;;12.23;1.30;;;4.70;96.60;;;;;;5056250;28;20029;-76
2022/01/21 04:53:35;;;;;;;18.20;1.58;;;4.70;96.50;;;;;;5057223;28;20399;-75
2022/01/21 04:56:01;;;;;;;11.65;1.05;;;4.60;96.50;;;;;;5055938;28;20032;-75
2022/01/21 04:58:27;;;;;;;11.23;1.17;;;4.60;96.70;;;;;;5056452;28;20036;-76
2022/01/21 05:00:52;;;;;;;6.22;1.33;;;4.60;96.80;;;;;;5056296;28;20052;-75
2022/01/21 05:03:18;;;;;;;13.05;1.02;;;4.60;96.70;;;;;;5059664;28;20033;-74
2022/01/21 05:05:44;;;;;;;6.50;0.80;;;4.50;96.80;;;;;;5069613;28;20025;-75
2022/01/21 05:08:20;;;;;;;6.53;0.93;;;4.50;96.80;;;;;;5061574;28;20112;-75
2022/01/21 05:10:46;;;;;;;9.35;0.90;;;4.50;96.90;;;;;;5056031;28;20021;-75
2022/01/21 05:13:15;;;;;;;9.35;0.82;;;4.50;97.00;;;;;;5056049;28;20017;-76
2022/01/21 05:18:25;;;;;;;11.32;1.00;;;4.50;97.00;;;;;;5046795;28;20450;-75
2022/01/21 05:20:50;;;;;;;11.35;0.80;;;4.50;97.10;;;;;;5055695;28;20021;-75
2022/01/21 05:23:16;;;;;;;13.15;1.02;;;4.50;97.10;;;;;;5056151;28;20025;-75
2022/01/21 05:25:42;;;;;;;11.77;0.93;;;4.40;97.20;;;;;;5055739;28;20020;-75
2022/01/21 05:28:07;;;;;;;14.30;1.65;;;4.30;97.30;;;;;;5055471;28;20060;-75
2022/01/21 05:30:33;;;;;;;8.48;0.90;;;4.40;97.50;;;;;;5055543;28;20055;-75
2022/01/21 05:32:59;;;;;;;8.88;1.15;;;4.40;97.50;;;;;;5055768;28;20029;-76
2022/01/21 05:35:25;;;;;;;17.20;1.10;;;4.40;97.40;;;;;;5055674;28;20048;-75
2022/01/21 05:37:51;;;;;;;8.95;0.80;;;4.40;97.40;;;;;;5055446;28;20464;-75
2022/01/21 05:40:20;;;;;;;8.88;0.80;;;4.50;97.70;;;;;;5055522;28;20029;-75
2022/01/21 05:42:46;;;;;;;9.00;1.13;;;4.50;97.50;;;;;;5055656;28;20074;-74
2022/01/21 05:47:56;;;;;;;12.30;0.77;;;4.50;97.40;;;;;;5054804;28;20102;-74
2022/01/21 05:50:22;;;;;;;9.43;0.70;;;4.50;97.40;;;;;;5055568;28;20025;-74
2022/01/21 05:52:48;;;;;;;9.25;1.00;;;4.60;97.40;;;;;;5054581;28;20029;-74
2022/01/21 05:55:15;;;;;;;5.45;0.65;;;4.60;97.30;;;;;;5055160;28;20190;-74
2022/01/21 05:57:41;;;;;;;13.80;0.88;;;4.60;97.30;;;;;;5055569;28;20130;-75
2022/01/21 06:00:08;;;;;;;10.95;1.00;;;4.60;97.20;;;;;;5056257;28;20028;-74
2022/01/21 06:02:35;;;;;;;14.32;0.95;;;4.70;97.20;;;;;;5068741;28;20040;-74
2022/01/21 06:05:00;;;;;;;7.30;1.08;;;4.60;97.10;;;;;;5074098;28;20033;-73
2022/01/21 06:07:26;;;;;;;10.82;0.80;;;4.60;97.20;;;;;;5059294;28;20133;-74
2022/01/21 06:09:52;;;;;;;8.60;1.20;;;4.60;97.20;;;;;;5054782;28;20392;-74
2022/01/21 06:12:17;;;;;;;9.23;1.35;;;4.60;97.50;;;;;;5054827;28;20362;-76
2022/01/21 06:14:43;;;;;;;12.63;0.60;;;4.60;97.30;;;;;;5055521;28;20072;-77
2022/01/21 06:17:11;;;;;;;10.13;0.90;;;4.60;97.30;;;;;;5053139;28;20427;-76
2022/01/21 06:19:37;;;;;;;9.45;0.80;;;4.60;97.30;;;;;;5054850;28;20056;-77
2022/01/21 06:22:03;;;;;;;9.55;1.13;;;4.60;97.30;;;;;;5054421;28;20056;-77
2022/01/21 06:24:28;;;;;;;9.40;0.60;;;4.60;97.30;;;;;;5054483;28;20028;-77
2022/01/21 06:26:59;;;;;;;11.13;0.60;;;4.60;97.10;;;;;;5054401;28;20101;-76
2022/01/21 06:29:25;;;;;;;6.35;0.68;;;4.60;97.40;;;;;;5054596;28;20104;-76
2022/01/21 06:31:50;;;;;;;10.98;1.00;;;4.70;97.50;;;;;;5054264;28;20468;-75
2022/01/21 06:34:16;;;;;;;10.73;0.80;;;4.60;97.50;;;;;;5054697;28;20029;-76
2022/01/21 06:36:41;;;;;;;9.85;0.63;;;4.70;97.50;;;;;;5053817;28;20044;-77
2022/01/21 06:39:07;;;;;;;10.02;1.23;;;4.70;97.50;;;;;;5054956;28;20108;-77
2022/01/21 06:41:33;;;;;;;15.02;0.88;;;4.70;97.50;;;;;;5054243;28;20114;-77
2022/01/21 06:43:58;;;;;;;8.57;0.77;;;4.80;98.00;;;;;;5054604;28;20083;-78
2022/01/21 06:46:24;;;;;;;8.00;0.70;;;4.80;98.40;;;;;;5054752;28;20036;-78
2022/01/21 06:48:49;;;;;;;10.95;0.60;;;4.90;99.00;;;;;;5053684;28;20099;-78
2022/01/21 06:51:15;;;;;;;6.47;0.85;;;5.00;99.20;;;;;;5054671;28;20021;-78
2022/01/21 06:53:41;;;;;;;11.45;0.77;;;5.00;99.00;;;;;;5054748;28;20036;-78
2022/01/21 06:56:06;;;;;;;9.98;0.60;;;5.10;99.10;;;;;;5054596;28;20383;-76
2022/01/21 06:58:32;;;;;;;10.45;0.60;;;5.20;99.40;;;;;;5054009;28;20108;-74
2022/01/21 07:00:58;;;;;;;8.23;1.35;;;5.20;99.20;;;;;;5058273;28;20021;-75
2022/01/21 07:03:24;;;;;;;14.43;1.00;;;5.30;99.20;;;;;;5067714;28;20044;-76
2022/01/21 07:05:50;;;;;;;7.97;0.63;;;5.30;99.30;;;;;;5057402;28;20036;-76
2022/01/21 07:08:16;;;;;;;8.90;0.85;;;5.40;99.30;;;;;;5053292;28;20052;-75
2022/01/21 07:10:42;;;;;;;9.48;0.90;;;5.50;99.50;;;;;;5053162;28;20029;-76
2022/01/21 07:13:08;;;;;;;8.50;1.25;;;5.60;99.00;;;;;;5053544;28;20035;-78
2022/01/21 07:15:34;;;;;;;10.98;1.10;;;5.60;98.70;;;;;;5052306;28;20477;-78
2022/01/21 07:17:59;;;;;;;7.80;0.68;;;5.70;98.80;;;;;;5053762;28;20021;-79
2022/01/21 07:20:25;;;;;;;7.90;0.80;;;5.70;98.30;;;;;;5053541;28;20113;-78
2022/01/21 07:22:52;;;;;;;9.20;0.93;;;5.80;98.60;;;;;;5054115;28;20028;-76
2022/01/21 07:25:22;;;;;;;9.05;1.13;;;5.80;98.20;;;;;;5052445;28;20029;-76
2022/01/21 07:27:47;;;;;;;11.60;1.20;;;5.80;98.00;;;;;;5053701;28;20446;-76
2022/01/21 07:30:14;;;;;;;8.32;0.93;;;5.80;97.80;;;;;;5053648;28;20079;-75
2022/01/21 07:32:40;;;;;;;9.20;1.48;;;5.80;97.50;;;;;;5052089;28;20032;-75
2022/01/21 07:35:09;;;;;;;9.00;1.20;;;5.80;97.60;;;;;;5052568;28;20427;-75
2022/01/21 07:37:38;;;;;;;15.15;1.10;;;5.70;97.00;;;;;;5051479;28;20033;-75
2022/01/21 07:40:05;;;;;;;11.65;1.02;;;5.70;97.20;;;;;;5052726;28;20086;-75
2022/01/21 07:42:31;;;;;;;10.07;1.38;;;5.70;97.60;;;;;;5053095;28;20622;-77
2022/01/21 07:44:56;;;;;;;13.25;1.10;;;5.70;97.40;;;;;;5053092;28;20100;-76
2022/01/21 07:47:22;;;;;;;10.68;1.13;;;5.70;97.20;;;;;;5053311;28;20385;-76
2022/01/21 07:49:50;;;;;;;11.32;1.10;;;5.70;97.10;;;;;;5053636;28;20059;-76
2022/01/21 07:52:19;;;;;;;10.00;1.40;;;5.70;97.30;;;;;;5052801;28;20032;-76
2022/01/21 07:54:45;;;;;;;11.38;0.77;;;5.70;97.10;;;;;;5053224;28;20070;-76
2022/01/21 07:57:11;;;;;;;8.05;1.00;;;5.60;97.20;;;;;;5053807;28;20029;-75
2022/01/21 07:59:37;;;;;;;8.13;0.80;;;5.60;97.30;;;;;;5054938;28;20037;-73
2022/01/21 08:02:04;;;;;;;8.93;0.70;;;5.60;97.60;;;;;;5061167;28;20464;-76
2022/01/21 08:04:30;;;;;;;6.38;0.85;;;5.60;97.50;;;;;;5058562;28;20483;-76
2022/01/21 08:06:55;;;;;;;12.57;1.17;;;5.60;97.50;;;;;;5063240;28;20064;-77
2022/01/21 08:09:24;;;;;;;9.50;1.25;;;5.70;97.80;;;;;;5066779;28;20056;-77
2022/01/21 08:11:53;;;;;;;5.47;0.50;;;5.70;97.80;;;;;;5053423;28;20079;-76
2022/01/21 08:14:19;;;;;;;12.88;1.40;;;5.70;97.80;;;;;;5052835;28;20037;-76
2022/01/21 08:16:45;;;;;;;12.65;1.17;;;5.80;97.90;;;;;;5053214;28;20061;-75
2022/01/21 08:19:12;;;;;;;7.40;1.63;;;5.90;98.10;;;;;;5053067;28;20043;-76
2022/01/21 08:21:37;;;;;;;10.35;0.70;;;6.00;98.20;;;;;;5052426;28;20091;-75
2022/01/21 08:24:06;;;;;;;15.52;1.10;;;6.10;98.00;;;;;;5053252;28;20033;-76
2022/01/21 08:26:31;;;;;;;10.57;1.10;;;6.00;97.80;;;;;;5053277;28;20427;-76
2022/01/21 08:28:57;;;;;;;13.00;1.50;;;6.10;98.10;;;;;;5053024;28;20044;-75
2022/01/21 08:31:24;;;;;;;6.93;1.10;;;6.20;98.20;;;;;;5053589;28;20313;-77
2022/01/21 08:33:50;;;;;;;12.93;1.30;;;6.20;98.10;;;;;;5053793;28;20032;-81
2022/01/21 08:36:19;;;;;;;8.85;1.55;;;6.30;97.90;;;;;;5053663;28;20036;-80
2022/01/21 08:38:45;;;;;;;9.50;1.73;;;6.30;97.80;;;;;;5058394;28;20092;-80
2022/01/21 08:41:10;;;;;;;10.65;1.60;;;6.30;97.40;;;;;;5056052;28;20057;-81
2022/01/21 08:43:37;;;;;;;10.18;1.05;;;6.40;97.20;;;;;;5056928;28;20472;-76
2022/01/21 08:46:03;;;;;;;8.07;0.70;;;6.40;97.50;;;;;;5058966;28;20025;-75
2022/01/21 08:48:29;;;;;;;11.70;1.27;;;6.40;97.10;;;;;;5060774;28;20651;-76
2022/01/21 08:51:00;;;;;;;12.00;1.50;;;6.40;96.90;;;;;;5072703;28;20029;-77
2022/01/21 08:53:38;;;;;;;7.20;0.90;;;6.40;96.70;;;;;;5058760;28;20400;-75
2022/01/21 08:56:16;;;;;;;6.30;0.60;;;6.40;96.90;;;;;;5053282;28;20036;-76
2022/01/21 08:58:43;;;;;;;8.30;0.60;;;6.40;97.00;;;;;;5061448;28;20025;-77
2022/01/21 09:01:09;;;;;;;10.18;1.05;;;6.50;97.10;;;;;;5064727;28;20071;-74
2022/01/21 09:03:38;;;;;;;8.60;1.05;;;6.60;97.10;;;;;;5061817;28;20032;-76
2022/01/21 09:06:05;;;;;;;13.27;1.25;;;6.60;97.00;;;;;;5051692;28;20033;-76
2022/01/21 09:08:31;;;;;;;7.45;0.70;;;6.70;96.70;;;;;;5051337;28;20040;-76
2022/01/21 09:10:59;;;;;;;12.10;1.00;;;6.70;96.30;;;;;;5064081;28;20024;-76
2022/01/21 09:13:27;;;;;;;8.75;1.23;;;6.60;96.20;;;;;;5051343;28;20033;-77
2022/01/21 09:15:59;;;;;;;9.15;1.45;;;6.70;96.40;;;;;;5051836;28;20025;-76
2022/01/21 09:18:33;;;;;;;9.98;0.82;;;6.70;96.30;;;;;;5052035;28;20120;-76
2022/01/21 09:20:59;;;;;;;8.07;1.13;;;6.80;96.40;;;;;;5050879;28;20025;-76
2022/01/21 09:23:25;;;;;;;6.60;0.70;;;6.80;96.30;;;;;;5050185;28;20082;-76
2022/01/21 09:25:50;;;;;;;10.95;1.50;;;6.90;96.40;;;;;;5046633;28;20021;-77
2022/01/21 09:28:16;;;;;;;9.30;0.98;;;6.80;96.10;;;;;;5042785;28;20132;-77
2022/01/21 09:30:42;;;;;;;6.32;0.80;;;6.80;96.10;;;;;;5043567;28;20120;-77
2022/01/21 09:33:07;;;;;;;8.18;1.30;;;6.80;96.40;;;;;;5052491;28;20082;-76
2022/01/21 09:35:33;;;;;;;9.48;1.08;;;6.90;96.40;;;;;;5050388;28;20067;-77
2022/01/21 09:37:58;;;;;;;14.10;1.33;;;6.90;96.30;;;;;;5055628;28;20088;-77
2022/01/21 09:40:30;;;;;;;7.80;1.08;;;6.90;96.30;;;;;;5052334;28;20163;-77
2022/01/21 09:42:57;;;;;;;8.23;0.90;;;6.90;96.10;;;;;;5056904;28;20032;-77
2022/01/21 09:45:24;;;;;;;12.07;1.38;;;6.90;96.20;;;;;;5061907;28;20033;-77
2022/01/21 09:47:54;;;;;;;10.70;1.42;;;6.90;96.40;;;;;;5055594;28;20032;-78
2022/01/21 09:50:21;;;;;;;13.70;1.88;;;6.90;96.40;;;;;;5054330;28;20021;-76
2022/01/21 09:52:53;;;;;;;11.50;1.27;;;6.90;96.40;;;;;;5054392;28;20476;-76
2022/01/21 09:55:22;;;;;;;10.32;1.50;;;7.00;96.40;;;;;;5054659;28;20057;-76
2022/01/21 09:57:51;;;;;;;9.38;0.80;;;7.10;96.30;;;;;;5057593;28;20051;-79
2022/01/21 10:00:19;;;;;;;10.13;1.40;;;7.20;96.10;;;;;;5069231;28;20037;-79
2022/01/21 10:02:47;;;;;;;8.25;1.00;;;7.20;95.90;;;;;;5060069;28;20027;-76
2022/01/21 10:05:13;;;;;;;11.90;1.48;;;7.30;96.40;;;;;;5055591;28;20029;-77
2022/01/21 10:07:45;;;;;;;15.00;2.25;;;7.40;96.10;;;;;;5055103;28;20102;-77
2022/01/21 10:10:11;;;;;;;11.50;1.90;;;7.50;96.20;;;;;;5055423;28;20021;-77
2022/01/21 10:12:39;;;;;;;10.50;2.08;;;7.50;96.00;;;;;;5054919;28;20044;-77
2022/01/21 10:15:07;;;;;;;11.82;1.60;;;7.60;96.00;;;;;;5052243;28;20384;-77
2022/01/21 10:17:33;;;;;;;9.73;1.52;;;7.60;95.60;;;;;;5055014;28;20021;-77
2022/01/21 10:20:22;;;;;;;9.43;1.40;;;7.70;95.70;;;;;;5054597;28;20029;-76
2022/01/21 10:23:03;;;;;;;16.70;1.77;;;7.70;95.50;;;;;;5054830;28;20111;-76
2022/01/21 10:25:31;;;;;;;12.27;1.50;;;7.70;95.50;;;;;;5054539;28;20032;-77
2022/01/21 10:28:18;;;;;;;9.23;1.55;;;7.60;95.20;;;;;;5054664;28;20032;-76
2022/01/21 10:30:45;;;;;;;10.48;1.80;;;7.70;95.60;;;;;;5053813;28;20472;-77
2022/01/21 10:33:25;;;;;;;17.02;2.17;;;7.70;95.50;;;;;;5054890;28;20025;-76
2022/01/21 10:36:09;;;;;;;13.27;1.67;;;7.70;95.40;;;;;;5054347;28;20491;-76
2022/01/21 10:38:41;;;;;;;13.35;1.30;;;7.70;95.40;;;;;;5052867;28;20037;-76
2022/01/21 10:41:18;;;;;;;9.13;1.35;;;7.60;95.40;;;;;;5054595;28;20052;-76
2022/01/21 10:44:01;;;;;;;14.18;1.67;;;7.60;95.60;;;;;;5054723;28;20055;-76
2022/01/21 10:46:26;;;;;;;10.10;1.40;;;7.50;95.60;;;;;;5054724;28;20025;-76
2022/01/21 10:49:02;;;;;;;12.13;1.40;;;7.50;95.90;;;;;;5055067;28;20037;-75
2022/01/21 10:51:31;;;;;;;16.25;1.85;;;7.50;96.20;;;;;;5054650;28;20361;-75
2022/01/21 10:54:10;;;;;;;14.68;2.08;;;7.50;96.40;;;;;;5061673;28;20110;-75
2022/01/21 10:56:35;;;;;;;15.00;1.88;;;7.50;96.70;;;;;;5069728;28;20029;-75
2022/01/21 10:59:01;;;;;;;14.05;1.50;;;7.60;96.90;;;;;;5062073;28;20025;-76
2022/01/21 11:01:29;;;;;;;9.07;1.75;;;7.50;97.00;;;;;;5055720;28;20032;-76
2022/01/21 11:03:55;;;;;;;15.30;1.42;;;7.60;97.30;;;;;;5054581;28;20029;-75
2022/01/21 11:06:24;;;;;;;17.67;1.63;;;7.50;97.50;;;;;;5052681;28;20055;-76
2022/01/21 11:09:10;;;;;;;16.55;1.63;;;7.50;97.50;;;;;;5052999;28;20045;-80
2022/01/21 11:11:36;;;;;;;14.65;1.88;;;7.50;97.60;;;;;;5051776;28;20382;-78
2022/01/21 11:14:11;;;;;;;23.25;2.50;;;7.60;97.80;;;;;;5053367;28;20029;-77
2022/01/21 11:16:38;;;;;;;16.70;1.73;;;7.60;97.70;;;;;;5052961;28;20032;-78
2022/01/21 11:19:10;;;;;;;13.52;1.98;;;7.70;97.80;;;;;;5052433;28;20469;-77
2022/01/21 11:21:52;;;;;;;10.95;1.42;;;7.70;97.90;;;;;;5053406;28;20025;-75
2022/01/21 11:24:21;;;;;;;8.25;1.42;;;7.80;97.90;;;;;;5052296;28;20029;-76
2022/01/21 11:27:09;;;;;;;13.70;1.83;;;7.80;97.80;;;;;;5050957;28;20032;-75
2022/01/21 11:29:35;;;;;;;15.57;2.40;;;7.70;97.70;;;;;;5053531;28;20041;-78
2022/01/21 11:32:03;;;;;;;14.27;1.58;;;7.80;97.80;;;;;;5052777;28;20353;-78
2022/01/21 11:34:29;;;;;;;16.38;1.58;;;7.70;97.80;;;;;;5050533;28;20028;-78
2022/01/21 11:36:56;;;;;;;22.27;2.30;;;7.80;98.00;;;;;;5050658;28;20028;-78
2022/01/21 11:39:24;;;;;;;8.10;1.25;;;7.70;98.00;;;;;;5053647;28;20044;-79
2022/01/21 11:41:51;;;;;;;19.83;1.70;;;7.80;98.10;;;;;;5052858;28;20025;-78
2022/01/21 11:44:22;;;;;;;10.35;1.40;;;7.80;98.20;;;;;;5053023;28;20037;-78
2022/01/21 11:49:26;;;;;;;12.05;1.42;;;7.80;98.30;;;;;;5053215;28;20033;-79
2022/01/21 11:52:09;;;;;;;16.63;1.60;;;7.70;98.40;;;;;;5053653;28;20036;-78
2022/01/21 11:54:38;;;;;;;11.32;1.92;;;7.70;98.60;;;;;;5065310;28;20029;-75
2022/01/21 11:57:05;;;;;;;14.07;1.27;;;7.70;98.80;;;;;;5044254;28;20029;-75
2022/01/21 12:01:58;;;;;;;9.20;1.27;;;7.70;99.00;;;;;;5052311;28;20021;-76
2022/01/21 12:04:29;;;;;;;14.00;1.67;;;7.80;99.20;;;;;;5052496;28;20111;-77
2022/01/21 12:06:56;;;;;;;15.32;1.45;;;7.80;99.20;;;;;;5052044;28;20492;-75
2022/01/21 12:09:55;;;;;;;12.18;2.20;;;7.80;99.30;;;;;;5051990;28;20478;-77
2022/01/21 12:12:23;;;;;;;14.02;1.67;;;7.80;99.20;;;;;;5051817;28;20045;-75
2022/01/21 12:14:56;;;;;;;15.02;2.08;;;7.80;99.40;;;;;;5051378;28;20033;-80
2022/01/21 12:17:46;;;;;;;11.07;1.40;;;7.80;99.40;;;;;;5052190;28;20040;-79
2022/01/21 12:20:11;;;;;;;18.67;1.70;;;7.80;99.50;;;;;;5051745;28;20461;-76
2022/01/21 12:22:37;;;;;;;10.07;1.45;;;7.90;99.70;;;;;;5052597;28;20029;-79
2022/01/21 12:25:12;;;;;;;14.20;1.58;;;7.90;99.50;;;;;;5051936;28;20423;-79
2022/01/21 12:27:40;;;;;;;18.38;2.22;;;7.90;99.50;;;;;;5049763;28;20124;-74
2022/01/21 12:30:23;;;;;;;20.65;1.80;;;7.90;99.40;;;;;;5051740;28;20424;-76
2022/01/21 12:33:01;;;;;;;11.52;1.50;;;7.90;99.40;;;;;;5049974;28;20439;-73
2022/01/21 12:35:27;;;;;;;9.00;1.13;;;8.00;99.50;;;;;;5049132;28;20120;-75
2022/01/21 12:40:59;;;;;;;12.70;1.55;;;8.10;99.50;;;;;;5050632;28;20468;-77
2022/01/21 12:43:47;;;;;;;12.43;1.75;;;8.10;99.40;;;;;;5051456;28;20116;-73
2022/01/21 12:46:31;;;;;;;13.68;1.95;;;8.10;99.40;;;;;;5049808;28;20587;-73
2022/01/21 12:48:58;;;;;;;10.93;1.67;;;8.00;99.40;;;;;;5050391;28;20128;-73
2022/01/21 12:56:45;;;;;;;13.02;1.38;;;8.00;99.70;;;;;;5051684;28;20032;-78
2022/01/21 12:59:24;;;;;;;15.25;1.65;;;8.00;99.70;;;;;;5051858;28;20033;-81
2022/01/21 13:01:52;;;;;;;9.43;1.27;;;8.00;99.80;;;;;;5055244;28;20071;-81
2022/01/21 13:04:32;;;;;;;15.95;1.85;;;8.00;99.90;;;;;;5056343;28;20102;-77
2022/01/21 13:07:25;;;;;;;22.15;1.80;;;8.00;99.80;;;;;;5054577;28;20057;-74
2022/01/21 13:10:04;;;;;;;15.77;2.53;;;8.10;99.90;;;;;;5054423;28;20044;-75
2022/01/21 13:16:08;;;;;;;13.40;1.38;;;8.10;99.90;;;;;;5046578;28;20029;-75
2022/01/21 13:18:36;;;;;;;13.25;1.73;;;8.10;99.90;;;;;;5032535;28;20092;-76
2022/01/21 13:21:07;;;;;;;16.60;1.60;;;8.10;99.70;;;;;;5050398;28;20090;-77
2022/01/21 13:23:43;;;;;;;19.35;1.77;;;8.10;99.80;;;;;;5055332;28;20032;-77
2022/01/21 13:26:11;;;;;;;11.30;1.50;;;8.10;99.90;;;;;;5052691;28;20369;-77
2022/01/21 13:28:57;;;;;;;14.27;1.50;;;8.10;99.80;;;;;;5053864;28;20033;-75
2022/01/21 13:31:23;;;;;;;17.52;1.63;;;8.10;99.90;;;;;;5053546;28;20018;-78
2022/01/21 13:33:49;;;;;;;18.55;1.45;;;8.10;99.90;;;;;;5054725;28;20036;-76
2022/01/21 13:36:55;;;;;;;12.38;1.30;;;8.10;99.90;;;;;;5055225;28;20042;-78
2022/01/21 13:39:28;;;;;;;14.55;1.65;;;8.10;99.80;;;;;;5053258;28;20107;-77
2022/01/21 13:41:56;;;;;;;10.65;2.28;;;8.10;99.90;;;;;;5053933;28;20061;-78
2022/01/21 13:44:29;;;;;;;11.43;1.73;;;8.10;99.90;;;;;;5054381;28;20502;-78
2022/01/21 13:46:57;;;;;;;20.10;1.98;;;8.20;99.90;;;;;;5064172;28;20055;-73
2022/01/21 13:49:24;;;;;;;14.82;1.88;;;8.10;99.70;;;;;;5058853;28;20068;-76
2022/01/21 13:51:58;;;;;;;14.98;1.75;;;8.20;99.80;;;;;;5054224;28;20552;-78
2022/01/21 13:54:50;;;;;;;12.07;1.60;;;8.20;99.60;;;;;;5051627;28;20036;-78
2022/01/21 13:57:26;;;;;;;18.88;1.95;;;8.30;99.60;;;;;;5053271;28;20503;-77
2022/01/21 13:59:52;;;;;;;15.05;1.45;;;8.20;99.10;;;;;;5053902;28;20112;-78
2022/01/21 14:02:18;;;;;;;14.40;2.30;;;8.20;99.20;;;;;;5054421;28;20031;-78
2022/01/21 14:05:01;;;;;;;12.95;1.63;;;8.20;99.10;;;;;;5054204;28;20053;-77
2022/01/21 14:07:29;;;;;;;11.40;1.33;;;8.20;99.10;;;;;;5055411;28;20377;-77
2022/01/21 14:09:55;;;;;;;12.60;1.30;;;8.20;99.10;;;;;;5055892;28;20040;-78
2022/01/21 14:12:22;;;;;;;15.70;1.60;;;8.20;99.20;;;;;;5053615;28;20040;-80